Time;durP1;ratioP1;P1;durP2;ratioP2;P2;SDS_P1;SDS_P2;PMS_P1;PMS_P2;Temp;Humidity;BMP_temperature;BMP_pressure;BME280_temperature;BME280_humidity;BME280_pressure;Samples;Min_cycle;Max_cycle;Signal;HPM_P1;HPM_P2
2022/01/11 00:01:11;;;;;;;5.47;3.00;;;;;;;9.11;49.24;100215.13;3359867;29;20049;-74
2022/01/11 00:02:52;;;;;;;;;;;;;;;9.22;49.32;100213.91;3363700;29;20080;-73
2022/01/11 00:04:33;;;;;;;6.38;3.42;;;;;;;9.15;48.60;100218.25;3363494;29;19922;-74
2022/01/11 00:06:34;;;;;;;6.65;4.15;;;;;;;9.16;48.58;100220.75;3363557;29;20420;-74
2022/01/11 00:08:17;;;;;;;8.68;3.60;;;;;;;9.13;48.06;100229.03;3363224;29;20087;-75
2022/01/11 00:09:58;;;;;;;11.00;4.50;;;;;;;9.01;47.39;100224.25;3363244;29;20044;-74
2022/01/11 00:11:39;;;;;;;7.20;3.60;;;;;;;8.95;47.92;100223.13;3355829;29;20084;-73
2022/01/11 00:13:20;;;;;;;10.25;4.32;;;;;;;8.87;47.60;100231.13;3363030;29;20049;-72
2022/01/11 00:15:01;;;;;;;6.55;3.75;;;;;;;8.77;47.21;100228.66;3363220;29;20044;-72
2022/01/11 00:16:41;;;;;;;7.85;3.42;;;;;;;8.64;47.51;100228.34;3363637;29;20480;-72
2022/01/11 00:18:22;;;;;;;6.82;4.00;;;;;;;8.42;47.41;100216.59;3363025;29;20059;-73
2022/01/11 00:20:05;;;;;;;6.70;4.85;;;;;;;8.18;46.98;100238.63;3363230;29;20040;-72
2022/01/11 00:21:48;;;;;;;11.32;5.07;;;;;;;7.89;46.87;100236.44;3348887;29;20156;-71
2022/01/11 00:25:10;;;;;;;8.80;3.95;;;;;;;7.41;47.12;100229.06;3363066;29;20104;-74
2022/01/11 00:26:51;;;;;;;9.23;4.38;;;;;;;7.22;47.09;100230.13;3349154;29;20048;-74
2022/01/11 00:28:31;;;;;;;6.45;4.15;;;;;;;7.07;47.49;100221.09;3346713;29;20080;-74
2022/01/11 00:30:37;;;;;;;5.68;3.45;;;;;;;7.24;48.78;100239.75;3336549;29;20057;-74
2022/01/11 00:32:27;;;;;;;5.60;3.70;;;;;;;7.30;48.50;100245.22;3346595;29;20086;-75
2022/01/11 00:34:08;;;;;;;7.00;3.97;;;;;;;7.24;47.90;100245.88;3347972;29;20189;-74
2022/01/11 00:36:03;;;;;;;5.47;3.50;;;;;;;7.15;47.90;100245.03;3345911;29;20099;-75
2022/01/11 00:37:44;;;;;;;6.28;3.30;;;;;;;7.17;48.44;100245.66;3358080;29;20470;-74
2022/01/11 00:39:25;;;;;;;4.97;3.50;;;;;;;7.15;47.86;100233.56;3362666;29;20045;-74
2022/01/11 00:41:09;;;;;;;6.72;3.20;;;;;;;7.27;49.00;100248.22;3362456;29;20128;-74
2022/01/11 00:42:50;;;;;;;8.50;3.88;;;;;;;7.33;48.38;100252.88;3362362;29;20053;-73
2022/01/11 00:44:31;;;;;;;5.93;3.45;;;;;;;7.34;47.79;100246.59;3349300;29;20053;-73
2022/01/11 00:46:14;;;;;;;6.60;3.60;;;;;;;7.42;48.40;100248.44;3360405;29;20140;-74
2022/01/11 00:47:55;;;;;;;;;;;;;;;7.59;48.80;100252.81;3363352;29;20127;-73
2022/01/11 00:49:38;;;;;;;6.97;3.60;;;;;;;7.70;49.26;100264.94;3362068;29;20316;-73
2022/01/11 00:51:18;;;;;;;6.72;3.38;;;;;;;7.82;49.44;100257.50;3336201;29;20060;-73
2022/01/11 00:53:00;;;;;;;6.97;3.25;;;;;;;7.94;49.14;100271.28;3343786;29;20065;-74
2022/01/11 00:54:40;;;;;;;8.40;4.45;;;;;;;8.04;48.71;100266.66;3359980;29;20417;-73
2022/01/11 00:56:21;;;;;;;6.07;4.07;;;;;;;8.09;48.53;100267.00;3348919;29;20041;-74
2022/01/11 00:58:05;;;;;;;6.82;3.97;;;;;;;8.12;47.80;100266.69;3346590;29;20137;-73
2022/01/11 00:59:46;;;;;;;7.10;3.80;;;;;;;8.00;47.26;100276.78;3360415;29;20041;-74
2022/01/11 01:01:27;;;;;;;5.20;3.92;;;;;;;7.84;47.08;100272.25;3361765;29;20053;-72
2022/01/11 01:03:08;;;;;;;4.63;3.20;;;;;;;7.74;47.34;100284.84;3348515;29;20510;-73
2022/01/11 01:04:49;;;;;;;10.25;3.92;;;;;;;7.67;47.44;100275.88;3359931;29;20293;-73
2022/01/11 01:06:29;;;;;;;6.88;3.95;;;;;;;7.67;47.12;100291.81;3361691;29;20071;-75
2022/01/11 01:08:11;;;;;;;7.82;4.60;;;;;;;7.59;47.08;100281.13;3349025;29;20061;-74
2022/01/11 01:10:07;;;;;;;5.90;3.28;;;;;;;7.64;47.94;100290.31;3346399;29;20501;-75
2022/01/11 01:11:54;;;;;;;6.75;3.50;;;;;;;7.76;48.65;100298.78;3361124;29;20128;-75
2022/01/11 01:13:34;;;;;;;8.07;4.05;;;;;;;7.88;49.03;100298.50;3349008;29;20085;-74
2022/01/11 01:15:20;;;;;;;6.13;3.35;;;;;;;8.00;49.34;100300.69;3348798;29;20057;-74
2022/01/11 01:17:01;;;;;;;5.22;3.08;;;;;;;8.14;48.85;100296.56;3333798;29;20489;-74
2022/01/11 01:18:48;;;;;;;4.45;2.88;;;;;;;8.26;48.88;100300.56;3345099;29;20041;-76
2022/01/11 01:20:30;;;;;;;7.45;4.13;;;;;;;8.29;47.72;100297.56;3346418;29;20058;-74
2022/01/11 01:22:11;;;;;;;7.18;4.10;;;;;;;8.20;46.72;100297.72;3359126;29;20154;-72
2022/01/11 01:23:51;;;;;;;3.92;2.72;;;;;;;8.19;47.40;100302.19;3348493;29;20049;-74
2022/01/11 01:25:32;;;;;;;4.82;2.67;;;;;;;8.20;47.90;100303.84;3360007;29;20044;-73
2022/01/11 01:27:14;;;;;;;5.63;3.17;;;;;;;8.23;47.71;100303.53;3362687;29;20049;-73
2022/01/11 01:28:57;;;;;;;16.02;3.20;;;;;;;8.33;48.23;100308.69;3348635;29;20077;-74
2022/01/11 01:30:38;;;;;;;5.20;3.25;;;;;;;8.44;47.68;100318.19;3359286;29;20049;-74
2022/01/11 01:32:19;;;;;;;11.07;4.18;;;;;;;8.44;46.86;100315.53;3361719;29;20041;-75
2022/01/11 01:33:59;;;;;;;6.68;3.40;;;;;;;8.32;46.12;100317.66;3348536;29;20411;-75
2022/01/11 01:35:42;;;;;;;7.15;3.00;;;;;;;8.25;46.54;100317.47;3346216;29;20127;-73
2022/01/11 01:37:23;;;;;;;7.45;2.78;;;;;;;8.26;46.98;100320.94;3359644;29;20051;-73
2022/01/11 01:39:04;;;;;;;5.78;3.47;;;;;;;8.25;46.59;100322.78;3361364;29;20076;-72
2022/01/11 01:40:46;;;;;;;10.15;3.38;;;;;;;8.22;46.04;100328.41;3362159;29;20112;-73
2022/01/11 01:42:29;;;;;;;;;;;;;;;8.26;46.10;100319.16;3361454;29;20037;-72
2022/01/11 01:44:11;;;;;;;4.70;3.33;;;;;;;8.15;45.82;100329.22;3348860;29;19920;-73
2022/01/11 01:45:52;;;;;;;5.67;3.43;;;;;;;8.11;46.15;100330.56;3358728;29;20045;-73
2022/01/11 01:47:33;;;;;;;4.60;2.97;;;;;;;8.14;47.25;100325.75;3335794;29;20780;-73
2022/01/11 01:49:19;;;;;;;4.90;3.22;;;;;;;8.27;46.97;100326.09;3356294;29;20093;-74
2022/01/11 01:50:59;;;;;;;6.28;3.33;;;;;;;8.36;46.67;100323.47;3323306;29;20510;-73
2022/01/11 01:52:41;;;;;;;4.63;3.00;;;;;;;8.37;46.29;100330.44;3354602;29;20048;-72
2022/01/11 01:54:23;;;;;;;5.72;3.05;;;;;;;8.38;46.56;100321.47;3348509;29;20053;-73
2022/01/11 01:56:04;;;;;;;5.65;3.65;;;;;;;8.50;46.69;100330.81;3348859;29;20110;-73
2022/01/11 01:57:45;;;;;;;4.85;3.53;;;;;;;8.56;46.51;100335.47;3358708;29;20041;-73
2022/01/11 01:59:25;;;;;;;5.45;2.90;;;;;;;8.62;46.40;100329.50;3335802;29;20556;-73
2022/01/11 02:01:07;;;;;;;4.32;2.53;;;;;;;8.68;46.59;100334.13;3333518;29;20068;-74
2022/01/11 02:02:47;;;;;;;5.20;3.38;;;;;;;8.76;46.12;100329.81;3356636;29;20052;-74
2022/01/11 02:04:29;;;;;;;5.68;5.15;;;;;;;8.74;45.65;100333.47;3361525;29;20045;-73
2022/01/11 02:06:20;;;;;;;6.85;3.72;;;;;;;8.66;44.36;100333.47;3333677;29;20394;-73
2022/01/11 02:08:01;;;;;;;5.38;3.22;;;;;;;8.57;44.78;100338.94;3371583;29;20044;-73
2022/01/11 02:09:41;;;;;;;4.40;3.25;;;;;;;8.49;44.73;100342.41;3348568;29;20136;-74
2022/01/11 02:11:24;;;;;;;4.07;2.65;;;;;;;8.43;44.74;100340.44;3343551;29;20430;-74
2022/01/11 02:13:08;;;;;;;5.63;2.90;;;;;;;8.40;44.76;100332.81;3365241;29;20580;-74
2022/01/11 02:14:49;;;;;;;7.28;4.43;;;;;;;8.37;44.78;100331.28;3348480;29;20057;-73
2022/01/11 02:16:30;;;;;;;9.25;3.28;;;;;;;8.34;44.19;100336.06;3346130;29;20041;-73
2022/01/11 02:18:18;;;;;;;7.22;3.75;;;;;;;8.23;43.98;100340.69;3333360;29;20069;-75
2022/01/11 02:20:00;;;;;;;4.70;3.17;;;;;;;8.17;44.24;100344.00;3358594;29;20182;-73
2022/01/11 02:21:41;;;;;;;5.70;3.15;;;;;;;8.11;44.32;100336.72;3348458;29;20053;-73
2022/01/11 02:23:23;;;;;;;3.72;2.42;;;;;;;8.06;44.89;100339.03;3358128;29;20045;-73
2022/01/11 02:25:05;;;;;;;3.90;3.08;;;;;;;8.12;45.38;100345.50;3348384;29;20050;-73
2022/01/11 02:26:46;;;;;;;4.78;2.78;;;;;;;8.20;45.21;100346.34;3345992;29;20041;-74
2022/01/11 02:28:28;;;;;;;4.97;3.25;;;;;;;8.22;44.40;100340.88;3345756;29;20064;-75
2022/01/11 02:30:09;;;;;;;3.45;3.10;;;;;;;8.16;43.87;100345.03;3359883;29;20051;-75
2022/01/11 02:31:51;;;;;;;5.40;3.90;;;;;;;8.13;44.63;100339.19;3348281;29;20050;-72
2022/01/11 02:33:37;;;;;;;3.88;2.90;;;;;;;8.16;44.36;100342.38;3345017;29;20186;-74
2022/01/11 02:35:36;;;;;;;4.55;3.03;;;;;;;8.21;44.00;100350.66;3363726;29;20049;-75
2022/01/11 02:37:17;;;;;;;4.50;2.75;;;;;;;8.20;43.76;100346.34;3350577;29;20060;-74
2022/01/11 02:39:07;;;;;;;4.30;3.08;;;;;;;8.18;44.03;100350.97;3349672;29;20117;-74
2022/01/11 02:40:48;;;;;;;5.32;3.13;;;;;;;8.18;44.04;100347.50;3348207;29;20053;-73
2022/01/11 02:42:29;;;;;;;3.53;2.78;;;;;;;8.16;44.47;100349.47;3348523;29;20133;-73
2022/01/11 02:44:09;;;;;;;5.35;3.63;;;;;;;8.16;44.07;100345.03;3347480;29;20116;-73
2022/01/11 02:45:52;;;;;;;4.65;3.08;;;;;;;8.13;44.35;100355.13;3361566;29;20053;-73
2022/01/11 02:47:33;;;;;;;5.15;3.20;;;;;;;8.15;44.56;100356.63;3350303;29;20049;-71
2022/01/11 02:49:13;;;;;;;6.22;3.85;;;;;;;8.10;44.20;100361.56;3348114;29;20059;-73
2022/01/11 02:50:59;;;;;;;4.70;3.10;;;;;;;8.01;43.68;100360.72;3348622;29;20057;-73
2022/01/11 02:52:40;;;;;;;4.85;2.95;;;;;;;7.98;44.02;100365.53;3347985;29;20094;-74
2022/01/11 02:54:22;;;;;;;5.28;3.17;;;;;;;8.00;44.70;100361.75;3339401;29;20124;-73
2022/01/11 02:56:07;;;;;;;4.88;3.47;;;;;;;8.01;44.09;100374.00;3335639;29;20048;-73
2022/01/11 02:57:48;;;;;;;6.38;4.30;;;;;;;7.90;43.35;100365.50;3345898;29;20041;-72
2022/01/11 02:59:34;;;;;;;6.25;3.33;;;;;;;7.83;43.95;100376.75;3348489;29;20089;-73
2022/01/11 03:01:15;;;;;;;4.38;2.80;;;;;;;7.88;44.47;100372.81;3347858;29;20121;-73
2022/01/11 03:03:23;;;;;;;6.90;3.58;;;;;;;8.07;44.49;100369.88;3360958;29;20052;-73
2022/01/11 03:05:06;;;;;;;4.57;3.22;;;;;;;8.06;43.86;100378.84;3350479;29;20583;-73
2022/01/11 03:06:48;;;;;;;4.82;3.75;;;;;;;8.03;43.65;100372.03;3361512;29;20040;-73
2022/01/11 03:08:32;;;;;;;5.20;2.67;;;;;;;8.11;43.97;100376.53;3350294;29;20056;-74
2022/01/11 03:10:32;;;;;;;4.68;2.78;;;;;;;8.19;44.02;100378.38;3360692;29;20049;-75
2022/01/11 03:12:14;;;;;;;3.67;3.17;;;;;;;8.24;43.52;100379.56;3350192;29;20120;-75
2022/01/11 03:13:55;;;;;;;7.13;3.70;;;;;;;8.22;42.95;100380.72;3346639;29;20085;-73
2022/01/11 03:15:37;;;;;;;5.97;3.45;;;;;;;8.05;42.50;100380.66;3347808;29;20366;-74
2022/01/11 03:17:22;;;;;;;5.00;3.13;;;;;;;7.91;42.89;100385.75;3348333;29;20059;-74
2022/01/11 03:19:03;;;;;;;9.55;3.35;;;;;;;7.76;42.94;100386.34;3347719;29;20106;-75
2022/01/11 03:20:46;;;;;;;4.53;3.65;;;;;;;7.56;42.46;100390.22;3347630;29;20061;-75
2022/01/11 03:22:27;;;;;;;6.88;3.55;;;;;;;7.39;42.60;100395.44;3343367;29;20053;-74
2022/01/11 03:24:08;;;;;;;5.53;3.17;;;;;;;7.21;42.53;100386.72;3360418;29;20044;-73
2022/01/11 03:25:51;;;;;;;5.60;2.72;;;;;;;7.09;42.49;100387.94;3364067;29;20139;-73
2022/01/11 03:27:33;;;;;;;6.18;3.63;;;;;;;7.03;43.05;100389.41;3350138;29;20052;-76
2022/01/11 03:29:15;;;;;;;5.22;3.47;;;;;;;6.95;42.73;100392.00;3347739;29;20089;-76
2022/01/11 03:30:57;;;;;;;5.22;3.25;;;;;;;6.97;44.04;100382.91;3347672;29;20042;-73
2022/01/11 03:32:38;;;;;;;11.10;3.08;;;;;;;7.21;44.73;100394.66;3334797;29;20455;-72
2022/01/11 03:34:27;;;;;;;8.00;3.08;;;;;;;7.48;44.86;100392.81;3346632;29;20125;-73
2022/01/11 03:36:08;;;;;;;5.70;3.40;;;;;;;7.63;44.47;100391.25;3344384;29;20061;-72
2022/01/11 03:37:49;;;;;;;5.10;3.03;;;;;;;7.76;44.20;100389.00;3347889;29;20108;-73
2022/01/11 03:39:32;;;;;;;3.53;2.22;;;;;;;7.85;43.68;100389.88;3350980;29;20045;-74
2022/01/11 03:41:13;;;;;;;5.68;3.15;;;;;;;7.85;43.03;100398.66;3336989;29;20050;-73
2022/01/11 03:42:55;;;;;;;2.92;2.50;;;;;;;7.91;43.86;100401.69;3334624;29;20054;-72
2022/01/11 03:44:36;;;;;;;5.30;3.17;;;;;;;7.91;42.96;100404.34;3345756;29;20060;-72
2022/01/11 03:46:17;;;;;;;4.13;2.72;;;;;;;7.84;42.80;100394.34;3346939;29;20368;-73
2022/01/11 03:47:59;;;;;;;5.47;3.45;;;;;;;7.86;43.43;100402.16;3360533;29;20045;-72
2022/01/11 03:49:40;;;;;;;4.15;2.45;;;;;;;7.92;43.36;100401.50;3349874;29;20045;-72
2022/01/11 03:51:21;;;;;;;3.08;2.63;;;;;;;8.04;43.34;100410.03;3359893;29;20049;-74
2022/01/11 03:53:13;;;;;;;4.82;3.00;;;;;;;8.13;42.93;100411.72;3349196;29;20102;-72
2022/01/11 03:56:47;;;;;;;6.55;3.25;;;;;;;8.28;42.96;100411.91;3347722;29;20041;-74
2022/01/11 03:58:34;;;;;;;4.93;2.70;;;;;;;8.34;42.86;100421.06;3347654;29;20053;-71
2022/01/11 04:00:18;;;;;;;5.15;3.35;;;;;;;8.36;41.96;100427.03;3349700;29;20422;-72
2022/01/11 04:02:01;;;;;;;4.43;3.15;;;;;;;8.32;41.98;100426.53;3347718;29;20513;-75
2022/01/11 04:03:42;;;;;;;4.53;2.95;;;;;;;8.30;42.16;100424.03;3359648;29;20052;-75
2022/01/11 04:05:23;;;;;;;3.45;2.92;;;;;;;8.25;41.64;100426.34;3349391;29;20053;-75
2022/01/11 04:07:04;;;;;;;5.90;3.63;;;;;;;8.18;41.56;100432.47;3356474;29;20049;-76
2022/01/11 04:08:45;;;;;;;3.90;2.67;;;;;;;8.05;41.92;100430.25;3359772;29;20044;-75
2022/01/11 04:10:27;;;;;;;6.20;2.95;;;;;;;8.03;42.45;100432.25;3349489;29;20140;-75
2022/01/11 04:12:08;;;;;;;4.78;3.30;;;;;;;8.02;42.29;100433.22;3346907;29;20049;-74
2022/01/11 04:13:50;;;;;;;4.93;3.17;;;;;;;8.04;42.10;100442.69;3359238;29;20045;-74
2022/01/11 04:15:30;;;;;;;3.83;3.00;;;;;;;7.99;41.57;100438.88;3351985;29;20189;-75
2022/01/11 04:17:12;;;;;;;5.05;3.03;;;;;;;7.88;41.32;100447.94;3347179;29;20050;-75
2022/01/11 04:18:53;;;;;;;4.25;2.75;;;;;;;7.78;41.43;100439.25;3346647;29;20102;-76
2022/01/11 04:20:34;;;;;;;4.25;2.90;;;;;;;7.76;41.99;100447.38;3359620;29;20420;-74
2022/01/11 04:22:14;;;;;;;2.58;2.30;;;;;;;7.82;42.40;100443.25;3363245;29;20037;-74
2022/01/11 04:23:56;;;;;;;3.63;2.30;;;;;;;7.89;42.22;100446.13;3361351;29;20052;-73
2022/01/11 04:25:38;;;;;;;3.47;2.75;;;;;;;7.91;41.56;100452.94;3349213;29;20056;-76
2022/01/11 04:27:19;;;;;;;5.13;3.27;;;;;;;7.88;41.32;100450.59;3346753;29;20041;-74
2022/01/11 04:29:00;;;;;;;3.90;2.58;;;;;;;7.90;41.58;100453.94;3359576;29;20110;-74
2022/01/11 04:30:41;;;;;;;4.72;2.42;;;;;;;7.88;41.21;100457.72;3348860;29;20041;-75
2022/01/11 04:32:23;;;;;;;3.65;2.10;;;;;;;7.86;41.45;100465.84;3359924;29;20061;-73
2022/01/11 04:34:05;;;;;;;3.83;3.15;;;;;;;7.91;41.34;100465.38;3336563;29;20053;-75
2022/01/11 04:35:48;;;;;;;5.70;2.83;;;;;;;7.88;40.86;100468.34;3347567;29;20377;-74
2022/01/11 04:37:31;;;;;;;4.25;2.70;;;;;;;7.68;40.34;100468.56;3348576;29;20056;-74
2022/01/11 04:39:13;;;;;;;5.57;3.40;;;;;;;7.39;40.21;100472.34;3337919;29;20042;-73
2022/01/11 04:40:55;;;;;;;5.45;3.33;;;;;;;7.08;40.46;100476.41;3348778;29;20075;-74
2022/01/11 04:42:36;;;;;;;4.78;2.85;;;;;;;6.81;40.50;100475.47;3336033;29;20506;-74
2022/01/11 04:44:17;;;;;;;5.55;3.13;;;;;;;6.57;40.66;100477.88;3345523;29;20045;-76
2022/01/11 04:45:58;;;;;;;7.60;3.63;;;;;;;6.38;41.23;100477.03;3359754;29;20520;-74
2022/01/11 04:47:39;;;;;;;5.40;3.22;;;;;;;6.19;40.98;100475.28;3348765;29;20057;-74
2022/01/11 04:49:20;;;;;;;5.30;3.22;;;;;;;6.03;41.04;100477.75;3345132;29;20044;-73
2022/01/11 04:51:06;;;;;;;7.15;3.30;;;;;;;5.87;41.28;100479.16;3339362;29;20482;-73
2022/01/11 04:52:47;;;;;;;4.45;2.92;;;;;;;5.76;41.47;100484.63;3339935;29;20187;-73
2022/01/11 04:54:30;;;;;;;10.35;3.83;;;;;;;5.62;41.63;100477.97;3339817;29;20049;-70
2022/01/11 04:56:11;;;;;;;4.95;3.42;;;;;;;5.47;41.69;100479.38;3359647;29;20068;-71
2022/01/11 04:57:52;;;;;;;5.28;3.42;;;;;;;5.31;41.59;100487.91;3348045;29;20093;-71
2022/01/11 04:59:32;;;;;;;6.95;3.78;;;;;;;5.11;41.68;100484.47;3345971;29;20049;-70
2022/01/11 05:01:14;;;;;;;7.07;3.58;;;;;;;4.95;41.40;100487.63;3358921;29;20131;-71
2022/01/11 05:02:58;;;;;;;4.60;3.28;;;;;;;4.77;41.44;100491.94;3348645;29;20132;-71
2022/01/11 05:04:39;;;;;;;6.60;3.58;;;;;;;4.55;41.39;100490.38;3346043;29;20037;-71
2022/01/11 05:06:20;;;;;;;5.65;3.40;;;;;;;4.41;41.35;100491.59;3346114;29;20060;-72
2022/01/11 05:08:02;;;;;;;4.80;3.40;;;;;;;4.25;41.35;100480.72;3346367;29;20086;-70
2022/01/11 05:09:43;;;;;;;6.82;4.32;;;;;;;4.07;41.38;100498.97;3358097;29;20109;-73
2022/01/11 05:11:25;;;;;;;4.32;3.08;;;;;;;3.88;41.33;100497.91;3360976;29;20037;-71
2022/01/11 05:13:05;;;;;;;4.88;3.63;;;;;;;3.77;41.24;100498.00;3347661;29;20561;-71
2022/01/11 05:14:46;;;;;;;5.50;2.97;;;;;;;3.63;41.50;100506.25;3346028;29;20049;-70
2022/01/11 05:16:27;;;;;;;5.22;3.85;;;;;;;3.53;41.52;100506.16;3364427;29;20045;-71
2022/01/11 05:18:08;;;;;;;5.80;3.00;;;;;;;3.43;41.51;100500.00;3361275;29;20449;-71
2022/01/11 05:19:49;;;;;;;5.70;3.80;;;;;;;3.33;41.47;100505.22;3348845;29;20045;-70
2022/01/11 05:21:31;;;;;;;5.78;3.95;;;;;;;3.25;41.50;100513.75;3358343;29;20044;-70
2022/01/11 05:23:14;;;;;;;5.10;3.28;;;;;;;3.12;41.60;100510.44;3348608;29;20101;-71
2022/01/11 05:24:55;;;;;;;5.85;3.05;;;;;;;3.03;41.49;100519.13;3345814;29;20060;-78
2022/01/11 05:26:37;;;;;;;5.38;3.33;;;;;;;2.95;41.80;100516.28;3332802;29;20046;-74
2022/01/11 05:28:17;;;;;;;4.38;3.22;;;;;;;2.88;41.72;100520.38;3346387;29;20052;-71
2022/01/11 05:29:58;;;;;;;6.32;3.20;;;;;;;2.81;41.88;100520.00;3359003;29;20074;-73
2022/01/11 05:31:39;;;;;;;8.02;3.80;;;;;;;2.73;42.00;100517.16;3346814;29;20041;-74
2022/01/11 05:33:20;;;;;;;5.57;3.22;;;;;;;2.67;41.86;100521.13;3344437;29;20140;-71
2022/01/11 05:35:05;;;;;;;5.82;3.97;;;;;;;2.62;42.14;100521.50;3352356;29;20051;-69
2022/01/11 05:36:47;;;;;;;4.45;3.30;;;;;;;2.57;41.85;100526.28;3349204;29;20050;-72
2022/01/11 05:38:28;;;;;;;5.00;3.53;;;;;;;2.52;42.10;100533.72;3334464;29;20554;-70
2022/01/11 05:40:10;;;;;;;7.88;3.00;;;;;;;2.46;42.12;100518.44;3335837;29;20051;-73
2022/01/11 05:41:51;;;;;;;5.85;3.47;;;;;;;2.39;42.06;100525.94;3327190;29;20085;-72
2022/01/11 05:43:32;;;;;;;4.95;3.47;;;;;;;2.33;42.21;100530.88;3348054;29;20057;-71
2022/01/11 05:45:14;;;;;;;5.70;2.78;;;;;;;2.28;42.15;100536.50;3347747;29;20137;-71
2022/01/11 05:46:56;;;;;;;6.50;3.13;;;;;;;2.23;41.97;100535.19;3346758;29;20394;-69
2022/01/11 05:48:37;;;;;;;5.63;3.60;;;;;;;2.16;41.90;100526.94;3358013;29;20088;-71
2022/01/11 05:50:18;;;;;;;4.97;3.17;;;;;;;2.07;41.99;100544.25;3350487;29;20064;-73
2022/01/11 05:52:00;;;;;;;4.75;2.70;;;;;;;2.01;42.21;100542.09;3363585;29;20127;-71
2022/01/11 05:53:42;;;;;;;4.57;3.03;;;;;;;1.99;42.33;100543.16;3350709;29;20402;-71
2022/01/11 05:55:24;;;;;;;4.72;2.78;;;;;;;1.95;42.42;100551.28;3346383;29;20185;-71
2022/01/11 05:57:05;;;;;;;4.15;2.55;;;;;;;1.94;42.49;100554.06;3347030;29;20142;-72
2022/01/11 05:58:47;;;;;;;5.18;2.65;;;;;;;1.86;42.48;100551.16;3344915;29;20049;-72
2022/01/11 06:00:27;;;;;;;3.30;2.38;;;;;;;1.79;42.29;100560.47;3332032;29;20040;-72
2022/01/11 06:02:08;;;;;;;2.83;2.35;;;;;;;1.68;42.39;100556.03;3342955;29;20543;-72
2022/01/11 06:03:50;;;;;;;3.03;2.10;;;;;;;1.61;42.11;100549.56;3346648;29;20120;-73
2022/01/11 06:05:36;;;;;;;4.10;2.78;;;;;;;1.53;42.05;100560.66;3344581;29;20044;-71
2022/01/11 06:07:17;;;;;;;4.30;2.47;;;;;;;1.47;42.07;100561.09;3345144;29;20064;-73
2022/01/11 06:09:01;;;;;;;5.25;2.78;;;;;;;1.44;42.37;100561.31;3344512;29;20045;-72
2022/01/11 06:10:44;;;;;;;3.13;2.33;;;;;;;1.40;42.51;100568.59;3348063;29;20043;-73
2022/01/11 06:12:25;;;;;;;3.50;2.22;;;;;;;1.38;42.55;100574.94;3346280;29;20057;-71
2022/01/11 06:14:07;;;;;;;5.75;2.65;;;;;;;1.37;42.34;100575.84;3350641;29;20048;-71
2022/01/11 06:15:52;;;;;;;4.95;2.92;;;;;;;1.34;42.44;100576.09;3342602;29;20049;-72
2022/01/11 06:17:34;;;;;;;3.97;2.72;;;;;;;1.30;42.64;100583.38;3352503;29;20071;-71
2022/01/11 06:19:18;;;;;;;5.15;2.58;;;;;;;1.25;42.58;100591.56;3359882;29;20133;-74
2022/01/11 06:21:05;;;;;;;8.68;2.63;;;;;;;1.19;42.66;100589.41;3352057;29;20054;-73
2022/01/11 06:22:45;;;;;;;2.80;2.38;;;;;;;1.16;42.80;100592.25;3350308;29;20091;-72
2022/01/11 06:24:27;;;;;;;3.17;1.88;;;;;;;1.10;42.65;100600.56;3349394;29;20442;-74
2022/01/11 06:26:08;;;;;;;4.47;2.83;;;;;;;1.03;42.92;100586.19;3350238;29;20532;-71
2022/01/11 06:27:49;;;;;;;3.63;2.15;;;;;;;1.04;43.12;100588.72;3349807;29;20322;-73
2022/01/11 06:29:31;;;;;;;3.58;2.10;;;;;;;1.08;43.01;100598.06;3347171;29;20104;-71
2022/01/11 06:31:13;;;;;;;3.67;2.28;;;;;;;1.03;43.01;100596.69;3350889;29;20050;-72
2022/01/11 06:32:54;;;;;;;6.97;2.88;;;;;;;1.00;43.06;100592.50;3351611;29;20046;-72
2022/01/11 06:34:36;;;;;;;2.92;2.35;;;;;;;0.94;43.37;100590.34;3353290;29;20042;-73
2022/01/11 06:36:19;;;;;;;5.32;2.47;;;;;;;0.86;43.58;100600.56;3354198;29;20049;-74
2022/01/11 06:38:02;;;;;;;2.65;2.03;;;;;;;0.84;43.63;100599.81;3343334;29;20065;-72
2022/01/11 06:39:44;;;;;;;3.72;2.00;;;;;;;0.82;43.20;100593.84;3344904;29;20465;-72
2022/01/11 06:41:25;;;;;;;5.03;2.60;;;;;;;0.78;43.66;100597.66;3344396;29;20048;-73
2022/01/11 06:43:07;;;;;;;5.32;2.05;;;;;;;0.75;43.94;100596.06;3345949;29;20064;-74
2022/01/11 06:44:48;;;;;;;4.80;1.95;;;;;;;0.74;43.96;100612.75;3353153;29;20131;-74
2022/01/11 06:46:30;;;;;;;3.67;3.03;;;;;;;0.70;44.29;100600.81;3348816;29;20068;-73
2022/01/11 06:48:14;;;;;;;4.28;2.03;;;;;;;0.72;44.45;100612.00;3349503;29;20057;-71
2022/01/11 06:49:55;;;;;;;2.83;2.35;;;;;;;0.70;44.12;100610.44;3340542;29;20752;-73
2022/01/11 06:51:37;;;;;;;3.72;2.15;;;;;;;0.63;44.06;100610.88;3351121;29;20044;-72
2022/01/11 06:53:21;;;;;;;3.58;2.45;;;;;;;0.69;43.97;100612.22;3357943;29;20557;-72
2022/01/11 06:55:07;;;;;;;3.03;2.50;;;;;;;0.64;44.08;100601.22;3349028;29;20041;-75
2022/01/11 06:56:49;;;;;;;3.55;3.25;;;;;;;0.65;43.96;100597.66;3360680;29;20056;-73
2022/01/11 06:58:32;;;;;;;4.45;2.45;;;;;;;0.66;43.97;100604.59;3362393;29;20428;-76
2022/01/11 07:00:14;;;;;;;5.30;2.55;;;;;;;0.70;43.88;100616.56;3363842;29;20055;-73
2022/01/11 07:01:59;;;;;;;6.55;2.35;;;;;;;0.73;44.16;100615.50;3349971;29;20050;-75
2022/01/11 07:03:53;;;;;;;3.72;2.30;;;;;;;0.73;43.63;100621.56;3348737;29;20053;-73
2022/01/11 07:05:43;;;;;;;3.00;2.30;;;;;;;0.78;43.66;100626.50;3375265;29;20048;-72
2022/01/11 07:07:24;;;;;;;3.20;2.33;;;;;;;0.79;43.41;100631.63;3362358;29;20041;-73
2022/01/11 07:09:04;;;;;;;5.65;2.53;;;;;;;0.81;43.35;100623.66;3359495;29;20481;-72
2022/01/11 07:10:48;;;;;;;6.63;2.03;;;;;;;0.81;43.35;100628.91;3356277;29;20109;-72
2022/01/11 07:12:29;;;;;;;3.33;2.17;;;;;;;0.80;43.51;100635.94;3371738;29;20116;-72
2022/01/11 07:14:11;;;;;;;4.57;2.20;;;;;;;0.80;43.32;100635.09;3388287;29;20092;-73
2022/01/11 07:15:53;;;;;;;5.03;2.60;;;;;;;0.78;43.44;100642.25;3370372;29;20053;-72
2022/01/11 07:17:35;;;;;;;5.45;2.20;;;;;;;0.72;43.24;100638.25;3372773;29;20496;-72
2022/01/11 07:19:17;;;;;;;5.13;2.58;;;;;;;0.68;43.57;100635.97;3375963;29;20048;-72
2022/01/11 07:20:58;;;;;;;2.83;2.13;;;;;;;0.62;43.32;100640.69;3361767;29;20248;-72
2022/01/11 07:22:42;;;;;;;4.40;2.30;;;;;;;0.59;43.55;100651.38;3360149;29;20135;-72
2022/01/11 07:24:26;;;;;;;3.15;2.40;;;;;;;0.57;43.33;100647.22;3359737;29;20053;-73
2022/01/11 07:26:07;;;;;;;6.57;3.40;;;;;;;0.58;43.21;100644.47;3359851;29;20116;-73
2022/01/11 07:27:48;;;;;;;5.18;3.35;;;;;;;0.61;43.15;100648.66;3357917;29;20049;-73
2022/01/11 07:29:29;;;;;;;4.37;2.93;;;;;;;0.63;42.95;100647.59;3371323;29;20049;-73
2022/01/11 07:31:11;;;;;;;7.32;2.83;;;;;;;0.63;43.05;100650.22;3360710;29;20555;-72
2022/01/11 07:32:59;;;;;;;4.28;2.63;;;;;;;0.58;42.83;100652.34;3359226;29;20037;-73
2022/01/11 07:34:40;;;;;;;3.50;2.55;;;;;;;0.61;43.09;100667.03;3357894;29;20043;-72
2022/01/11 07:36:21;;;;;;;7.07;3.33;;;;;;;0.63;42.84;100654.66;3358349;29;20585;-71
2022/01/11 07:38:06;;;;;;;4.13;2.20;;;;;;;0.64;42.67;100669.44;3362447;29;20473;-72
2022/01/11 07:39:46;;;;;;;4.50;2.40;;;;;;;0.65;42.92;100668.50;3359669;29;20052;-71
2022/01/11 07:41:28;;;;;;;3.27;2.23;;;;;;;0.68;42.73;100665.66;3372915;29;20049;-73
2022/01/11 07:43:35;;;;;;;3.47;2.00;;;;;;;0.68;42.57;100676.16;3335618;29;20298;-73
2022/01/11 07:45:26;;;;;;;3.45;3.03;;;;;;;0.62;41.90;100671.31;3360754;29;20156;-72
2022/01/11 07:47:07;;;;;;;4.78;2.60;;;;;;;0.60;42.21;100675.84;3347012;29;20430;-71
2022/01/11 07:48:51;;;;;;;4.80;2.47;;;;;;;0.56;41.88;100677.81;3370344;29;20139;-71
2022/01/11 07:50:31;;;;;;;6.38;3.53;;;;;;;0.57;42.15;100678.69;3362489;29;20071;-72
2022/01/11 07:52:12;;;;;;;3.05;2.60;;;;;;;0.55;42.24;100681.41;3362292;29;20053;-71
2022/01/11 07:53:53;;;;;;;5.00;2.85;;;;;;;0.58;41.86;100678.56;3346698;29;20078;-72
2022/01/11 07:55:35;;;;;;;5.47;2.92;;;;;;;0.59;42.03;100695.13;3357373;29;20055;-72
2022/01/11 07:57:16;;;;;;;3.40;2.10;;;;;;;0.59;42.25;100687.25;3359790;29;20068;-72
2022/01/11 07:58:56;;;;;;;5.03;2.83;;;;;;;0.59;42.15;100690.72;3359350;29;20528;-71
2022/01/11 08:00:42;;;;;;;4.35;3.05;;;;;;;0.61;42.25;100690.63;3360131;29;20037;-72
2022/01/11 08:02:26;;;;;;;7.13;2.58;;;;;;;0.59;42.02;100690.72;3359918;29;20049;-73
2022/01/11 08:04:08;;;;;;;4.97;2.72;;;;;;;0.57;42.16;100684.78;3362128;29;20045;-72
2022/01/11 08:05:55;;;;;;;6.45;3.22;;;;;;;0.59;41.94;100690.72;3360420;29;20897;-73
2022/01/11 08:07:39;;;;;;;21.17;3.30;;;;;;;0.56;42.02;100688.31;3372400;29;20060;-72